sensor_id;sensor_type;location;lat;lon;timestamp;temperature;humidity
27162;DHT22;54464;50.558;9.704;2023-07-20T00:01:55;16.40;99.90
27162;DHT22;54464;50.558;9.704;2023-07-20T00:12:00;16.40;99.90
27162;DHT22;54464;50.558;9.704;2023-07-20T00:14:38;16.30;99.90
27162;DHT22;54464;50.558;9.704;2023-07-20T00:17:31;16.20;99.90
27162;DHT22;54464;50.558;9.704;2023-07-20T00:20:19;16.00;99.90
27162;DHT22;54464;50.558;9.704;2023-07-20T00:22:53;15.90;99.90
27162;DHT22;54464;50.558;9.704;2023-07-20T00:25:46;15.70;99.90
27162;DHT22;54464;50.558;9.704;2023-07-20T00:31:49;15.70;99.90
27162;DHT22;54464;50.558;9.704;2023-07-20T00:34:25;15.80;99.90
27162;DHT22;54464;50.558;9.704;2023-07-20T00:37:02;15.80;99.90
27162;DHT22;54464;50.558;9.704;2023-07-20T00:40:11;15.90;99.90
27162;DHT22;54464;50.558;9.704;2023-07-20T00:43:16;15.80;99.90
27162;DHT22;54464;50.558;9.704;2023-07-20T00:45:54;15.80;99.90
27162;DHT22;54464;50.558;9.704;2023-07-20T00:48:29;15.70;99.90
27162;DHT22;54464;50.558;9.704;2023-07-20T00:51:27;15.60;99.90
27162;DHT22;54464;50.558;9.704;2023-07-20T00:54:37;15.60;99.90
27162;DHT22;54464;50.558;9.704;2023-07-20T00:57:07;15.50;99.90
27162;DHT22;54464;50.558;9.704;2023-07-20T00:59:38;15.50;99.90
27162;DHT22;54464;50.558;9.704;2023-07-20T01:02:53;15.50;99.90
27162;DHT22;54464;50.558;9.704;2023-07-20T01:09:11;15.50;99.90
27162;DHT22;54464;50.558;9.704;2023-07-20T01:11:45;15.60;99.90
27162;DHT22;54464;50.558;9.704;2023-07-20T01:14:26;15.70;99.90
27162;DHT22;54464;50.558;9.704;2023-07-20T01:17:02;15.70;99.90
27162;DHT22;54464;50.558;9.704;2023-07-20T01:19:44;15.80;99.90
27162;DHT22;54464;50.558;9.704;2023-07-20T01:31:30;15.70;99.90
27162;DHT22;54464;50.558;9.704;2023-07-20T01:34:12;15.60;99.90
27162;DHT22;54464;50.558;9.704;2023-07-20T01:37:04;15.50;99.90
27162;DHT22;54464;50.558;9.704;2023-07-20T01:39:43;15.50;99.90
27162;DHT22;54464;50.558;9.704;2023-07-20T01:42:33;15.50;99.90
27162;DHT22;54464;50.558;9.704;2023-07-20T01:45:58;15.40;99.90
27162;DHT22;54464;50.558;9.704;2023-07-20T01:48:10;15.40;99.90
27162;DHT22;54464;50.558;9.704;2023-07-20T01:50:37;15.40;99.90
27162;DHT22;54464;50.558;9.704;2023-07-20T01:53:20;15.40;99.90
27162;DHT22;54464;50.558;9.704;2023-07-20T01:55:49;15.30;99.90
27162;DHT22;54464;50.558;9.704;2023-07-20T01:58:15;15.20;99.90
27162;DHT22;54464;50.558;9.704;2023-07-20T02:00:49;15.20;99.90
27162;DHT22;54464;50.558;9.704;2023-07-20T02:03:15;15.30;99.90
27162;DHT22;54464;50.558;9.704;2023-07-20T02:06:18;15.30;99.90
27162;DHT22;54464;50.558;9.704;2023-07-20T02:08:52;15.30;99.90
27162;DHT22;54464;50.558;9.704;2023-07-20T02:11:21;15.30;99.90
27162;DHT22;54464;50.558;9.704;2023-07-20T02:13:49;15.20;99.90
27162;DHT22;54464;50.558;9.704;2023-07-20T02:16:26;15.20;99.90
27162;DHT22;54464;50.558;9.704;2023-07-20T02:19:00;15.10;99.90
27162;DHT22;54464;50.558;9.704;2023-07-20T02:21:48;15.10;99.90
27162;DHT22;54464;50.558;9.704;2023-07-20T02:24:40;15.20;99.90
27162;DHT22;54464;50.558;9.704;2023-07-20T02:27:17;15.20;99.90
27162;DHT22;54464;50.558;9.704;2023-07-20T02:29:42;15.20;99.90
27162;DHT22;54464;50.558;9.704;2023-07-20T02:32:14;15.20;99.90
27162;DHT22;54464;50.558;9.704;2023-07-20T02:34:42;15.00;99.90
27162;DHT22;54464;50.558;9.704;2023-07-20T02:37:13;15.00;99.90
27162;DHT22;54464;50.558;9.704;2023-07-20T02:40:08;15.00;99.90
27162;DHT22;54464;50.558;9.704;2023-07-20T02:42:37;15.00;99.90
27162;DHT22;54464;50.558;9.704;2023-07-20T02:45:09;15.10;99.90
27162;DHT22;54464;50.558;9.704;2023-07-20T02:47:43;15.10;99.90
27162;DHT22;54464;50.558;9.704;2023-07-20T02:50:27;15.20;99.90
27162;DHT22;54464;50.558;9.704;2023-07-20T02:52:58;15.20;99.90
27162;DHT22;54464;50.558;9.704;2023-07-20T02:55:32;15.00;99.90
27162;DHT22;54464;50.558;9.704;2023-07-20T02:58:07;15.00;99.90
27162;DHT22;54464;50.558;9.704;2023-07-20T03:00:35;14.90;99.90
27162;DHT22;54464;50.558;9.704;2023-07-20T03:03:06;14.90;99.90
27162;DHT22;54464;50.558;9.704;2023-07-20T03:05:40;14.70;99.90
27162;DHT22;54464;50.558;9.704;2023-07-20T03:08:13;14.90;99.90
27162;DHT22;54464;50.558;9.704;2023-07-20T03:10:48;14.90;99.90
27162;DHT22;54464;50.558;9.704;2023-07-20T03:13:26;14.90;99.90
27162;DHT22;54464;50.558;9.704;2023-07-20T03:16:03;14.80;99.90
27162;DHT22;54464;50.558;9.704;2023-07-20T03:18:34;14.80;99.90
27162;DHT22;54464;50.558;9.704;2023-07-20T03:21:11;14.80;99.90
27162;DHT22;54464;50.558;9.704;2023-07-20T03:23:37;14.80;99.90
27162;DHT22;54464;50.558;9.704;2023-07-20T03:26:15;14.80;99.90
27162;DHT22;54464;50.558;9.704;2023-07-20T03:28:59;14.70;99.90
27162;DHT22;54464;50.558;9.704;2023-07-20T03:31:28;14.70;99.90
27162;DHT22;54464;50.558;9.704;2023-07-20T03:33:59;14.70;99.90
27162;DHT22;54464;50.558;9.704;2023-07-20T03:36:38;14.80;99.90
27162;DHT22;54464;50.558;9.704;2023-07-20T03:39:15;14.80;99.90
27162;DHT22;54464;50.558;9.704;2023-07-20T03:41:51;14.70;99.90
27162;DHT22;54464;50.558;9.704;2023-07-20T03:44:36;14.70;99.90
27162;DHT22;54464;50.558;9.704;2023-07-20T03:47:22;14.70;99.90
27162;DHT22;54464;50.558;9.704;2023-07-20T03:49:58;14.70;99.90
27162;DHT22;54464;50.558;9.704;2023-07-20T03:52:32;14.70;99.90
27162;DHT22;54464;50.558;9.704;2023-07-20T03:55:12;14.70;99.90
27162;DHT22;54464;50.558;9.704;2023-07-20T03:57:43;14.80;99.90
27162;DHT22;54464;50.558;9.704;2023-07-20T04:00:15;14.70;99.90
27162;DHT22;54464;50.558;9.704;2023-07-20T04:02:47;14.70;99.90
27162;DHT22;54464;50.558;9.704;2023-07-20T04:05:15;14.80;99.90
27162;DHT22;54464;50.558;9.704;2023-07-20T04:07:43;14.80;99.90
27162;DHT22;54464;50.558;9.704;2023-07-20T04:10:54;14.80;99.90
27162;DHT22;54464;50.558;9.704;2023-07-20T04:13:22;14.90;99.90
27162;DHT22;54464;50.558;9.704;2023-07-20T04:15:59;14.90;99.90
27162;DHT22;54464;50.558;9.704;2023-07-20T04:18:33;15.00;99.90
27162;DHT22;54464;50.558;9.704;2023-07-20T04:21:01;14.90;99.90
27162;DHT22;54464;50.558;9.704;2023-07-20T04:23:29;14.80;99.90
27162;DHT22;54464;50.558;9.704;2023-07-20T04:26:17;14.90;99.90
27162;DHT22;54464;50.558;9.704;2023-07-20T04:28:56;15.00;99.90
27162;DHT22;54464;50.558;9.704;2023-07-20T04:31:36;15.10;99.90
27162;DHT22;54464;50.558;9.704;2023-07-20T04:34:25;15.20;99.90
27162;DHT22;54464;50.558;9.704;2023-07-20T04:37:15;15.20;99.90
27162;DHT22;54464;50.558;9.704;2023-07-20T04:39:41;15.30;99.90
27162;DHT22;54464;50.558;9.704;2023-07-20T04:48:20;15.60;99.90
27162;DHT22;54464;50.558;9.704;2023-07-20T04:50:58;15.60;99.90
27162;DHT22;54464;50.558;9.704;2023-07-20T04:53:29;15.40;99.90
27162;DHT22;54464;50.558;9.704;2023-07-20T04:56:02;15.40;99.90
27162;DHT22;54464;50.558;9.704;2023-07-20T04:58:35;15.50;99.90
27162;DHT22;54464;50.558;9.704;2023-07-20T05:01:09;15.50;99.90
27162;DHT22;54464;50.558;9.704;2023-07-20T05:03:44;15.50;99.90
27162;DHT22;54464;50.558;9.704;2023-07-20T05:06:22;15.60;99.90
27162;DHT22;54464;50.558;9.704;2023-07-20T05:08:56;15.60;99.90
27162;DHT22;54464;50.558;9.704;2023-07-20T05:11:28;15.70;99.90
27162;DHT22;54464;50.558;9.704;2023-07-20T05:13:59;15.80;99.90
27162;DHT22;54464;50.558;9.704;2023-07-20T05:16:31;15.90;99.90
27162;DHT22;54464;50.558;9.704;2023-07-20T05:19:08;15.80;99.90
27162;DHT22;54464;50.558;9.704;2023-07-20T05:21:52;15.80;99.90
27162;DHT22;54464;50.558;9.704;2023-07-20T05:24:40;15.80;99.90
27162;DHT22;54464;50.558;9.704;2023-07-20T05:27:22;15.90;99.90
27162;DHT22;54464;50.558;9.704;2023-07-20T05:29:48;16.00;99.90
27162;DHT22;54464;50.558;9.704;2023-07-20T05:32:17;16.00;99.90
27162;DHT22;54464;50.558;9.704;2023-07-20T05:34:50;16.10;99.90
27162;DHT22;54464;50.558;9.704;2023-07-20T05:37:19;16.10;99.90
27162;DHT22;54464;50.558;9.704;2023-07-20T05:40:14;16.20;99.90
27162;DHT22;54464;50.558;9.704;2023-07-20T05:42:45;16.10;99.90
27162;DHT22;54464;50.558;9.704;2023-07-20T05:45:15;16.20;99.90
27162;DHT22;54464;50.558;9.704;2023-07-20T05:48:01;16.30;99.90
27162;DHT22;54464;50.558;9.704;2023-07-20T05:50:46;16.20;99.90
27162;DHT22;54464;50.558;9.704;2023-07-20T05:53:44;16.10;99.90
27162;DHT22;54464;50.558;9.704;2023-07-20T05:56:17;16.20;99.90
27162;DHT22;54464;50.558;9.704;2023-07-20T05:58:48;16.20;99.90
27162;DHT22;54464;50.558;9.704;2023-07-20T06:01:17;16.30;99.90
27162;DHT22;54464;50.558;9.704;2023-07-20T06:03:51;16.30;99.90
27162;DHT22;54464;50.558;9.704;2023-07-20T06:06:17;16.40;99.90
27162;DHT22;54464;50.558;9.704;2023-07-20T06:08:42;16.40;99.90
27162;DHT22;54464;50.558;9.704;2023-07-20T06:11:11;16.30;99.90
27162;DHT22;54464;50.558;9.704;2023-07-20T06:13:39;16.30;99.90
27162;DHT22;54464;50.558;9.704;2023-07-20T06:16:09;16.30;99.90
27162;DHT22;54464;50.558;9.704;2023-07-20T06:18:37;16.30;99.90
27162;DHT22;54464;50.558;9.704;2023-07-20T06:21:05;16.40;99.90
27162;DHT22;54464;50.558;9.704;2023-07-20T06:23:37;16.30;99.90
27162;DHT22;54464;50.558;9.704;2023-07-20T06:26:09;16.40;99.90
27162;DHT22;54464;50.558;9.704;2023-07-20T06:28:43;16.40;99.90
27162;DHT22;54464;50.558;9.704;2023-07-20T06:31:34;16.60;99.90
27162;DHT22;54464;50.558;9.704;2023-07-20T06:34:00;16.60;99.90
27162;DHT22;54464;50.558;9.704;2023-07-20T06:36:40;16.60;99.90
27162;DHT22;54464;50.558;9.704;2023-07-20T06:39:49;16.70;99.90
27162;DHT22;54464;50.558;9.704;2023-07-20T06:42:18;16.60;99.90
27162;DHT22;54464;50.558;9.704;2023-07-20T06:44:49;16.60;99.90
27162;DHT22;54464;50.558;9.704;2023-07-20T06:47:21;16.70;99.90
27162;DHT22;54464;50.558;9.704;2023-07-20T06:49:50;16.70;99.90
27162;DHT22;54464;50.558;9.704;2023-07-20T06:52:18;16.80;99.90
27162;DHT22;54464;50.558;9.704;2023-07-20T06:54:53;17.00;99.90
27162;DHT22;54464;50.558;9.704;2023-07-20T06:57:24;17.10;99.90
27162;DHT22;54464;50.558;9.704;2023-07-20T06:59:58;17.10;99.90
27162;DHT22;54464;50.558;9.704;2023-07-20T07:02:32;17.10;99.90
27162;DHT22;54464;50.558;9.704;2023-07-20T07:05:09;17.00;99.90
27162;DHT22;54464;50.558;9.704;2023-07-20T07:07:43;16.90;99.90
27162;DHT22;54464;50.558;9.704;2023-07-20T07:10:30;16.80;99.90
27162;DHT22;54464;50.558;9.704;2023-07-20T07:13:09;16.60;99.90
27162;DHT22;54464;50.558;9.704;2023-07-20T07:15:38;16.60;99.90
27162;DHT22;54464;50.558;9.704;2023-07-20T07:18:13;16.70;99.90
27162;DHT22;54464;50.558;9.704;2023-07-20T07:20:53;17.00;99.90
27162;DHT22;54464;50.558;9.704;2023-07-20T07:23:19;17.40;99.90
27162;DHT22;54464;50.558;9.704;2023-07-20T07:25:47;17.50;99.90
27162;DHT22;54464;50.558;9.704;2023-07-20T07:28:16;17.50;99.90
27162;DHT22;54464;50.558;9.704;2023-07-20T07:30:45;17.50;99.90
27162;DHT22;54464;50.558;9.704;2023-07-20T07:33:14;17.80;99.90
27162;DHT22;54464;50.558;9.704;2023-07-20T07:35:49;17.80;99.90
27162;DHT22;54464;50.558;9.704;2023-07-20T07:38:45;17.90;99.90
27162;DHT22;54464;50.558;9.704;2023-07-20T07:41:20;18.20;99.90
27162;DHT22;54464;50.558;9.704;2023-07-20T07:44:04;18.30;99.90
27162;DHT22;54464;50.558;9.704;2023-07-20T07:46:30;17.80;99.90
27162;DHT22;54464;50.558;9.704;2023-07-20T07:49:09;17.70;99.90
27162;DHT22;54464;50.558;9.704;2023-07-20T07:51:43;17.40;99.90
27162;DHT22;54464;50.558;9.704;2023-07-20T07:54:09;17.20;99.90
27162;DHT22;54464;50.558;9.704;2023-07-20T07:56:45;17.30;99.90
27162;DHT22;54464;50.558;9.704;2023-07-20T07:59:22;17.50;99.90
27162;DHT22;54464;50.558;9.704;2023-07-20T08:02:08;17.70;99.90
27162;DHT22;54464;50.558;9.704;2023-07-20T08:04:36;18.00;99.90
27162;DHT22;54464;50.558;9.704;2023-07-20T08:07:12;18.00;99.90
27162;DHT22;54464;50.558;9.704;2023-07-20T08:09:48;18.00;99.90
27162;DHT22;54464;50.558;9.704;2023-07-20T08:12:17;18.10;99.90
27162;DHT22;54464;50.558;9.704;2023-07-20T08:14:44;18.00;99.90
27162;DHT22;54464;50.558;9.704;2023-07-20T08:17:13;18.20;99.90
27162;DHT22;54464;50.558;9.704;2023-07-20T08:19:38;18.00;99.90
27162;DHT22;54464;50.558;9.704;2023-07-20T08:22:13;17.90;99.90
27162;DHT22;54464;50.558;9.704;2023-07-20T08:24:45;17.80;99.90
27162;DHT22;54464;50.558;9.704;2023-07-20T08:27:41;17.80;99.90
27162;DHT22;54464;50.558;9.704;2023-07-20T08:30:20;17.70;99.90
27162;DHT22;54464;50.558;9.704;2023-07-20T08:32:51;17.70;99.90
27162;DHT22;54464;50.558;9.704;2023-07-20T08:35:40;17.80;99.90
27162;DHT22;54464;50.558;9.704;2023-07-20T08:38:08;17.70;99.90
27162;DHT22;54464;50.558;9.704;2023-07-20T08:40:54;17.60;99.90
27162;DHT22;54464;50.558;9.704;2023-07-20T08:43:30;17.50;99.90
27162;DHT22;54464;50.558;9.704;2023-07-20T08:46:05;17.50;99.90
27162;DHT22;54464;50.558;9.704;2023-07-20T08:48:41;17.40;99.90
27162;DHT22;54464;50.558;9.704;2023-07-20T08:51:11;17.60;99.90
27162;DHT22;54464;50.558;9.704;2023-07-20T08:53:38;17.80;99.90
27162;DHT22;54464;50.558;9.704;2023-07-20T08:56:16;18.20;99.90
27162;DHT22;54464;50.558;9.704;2023-07-20T08:58:47;18.30;99.90
27162;DHT22;54464;50.558;9.704;2023-07-20T09:01:19;18.20;99.90
27162;DHT22;54464;50.558;9.704;2023-07-20T09:03:48;18.60;99.90
27162;DHT22;54464;50.558;9.704;2023-07-20T09:06:15;19.00;99.90
27162;DHT22;54464;50.558;9.704;2023-07-20T09:08:50;19.10;99.90
27162;DHT22;54464;50.558;9.704;2023-07-20T09:11:16;18.80;99.90
27162;DHT22;54464;50.558;9.704;2023-07-20T09:14:10;19.20;99.90
27162;DHT22;54464;50.558;9.704;2023-07-20T09:16:54;19.20;99.90
27162;DHT22;54464;50.558;9.704;2023-07-20T09:19:20;19.50;99.90
27162;DHT22;54464;50.558;9.704;2023-07-20T09:22:08;19.70;99.90
27162;DHT22;54464;50.558;9.704;2023-07-20T09:24:43;20.10;99.90
27162;DHT22;54464;50.558;9.704;2023-07-20T09:27:15;19.80;99.90
27162;DHT22;54464;50.558;9.704;2023-07-20T09:29:51;19.30;99.90
27162;DHT22;54464;50.558;9.704;2023-07-20T09:32:41;19.40;99.90
27162;DHT22;54464;50.558;9.704;2023-07-20T09:35:21;19.90;99.90
27162;DHT22;54464;50.558;9.704;2023-07-20T09:38:07;20.20;99.90
27162;DHT22;54464;50.558;9.704;2023-07-20T09:40:50;20.60;99.00
27162;DHT22;54464;50.558;9.704;2023-07-20T09:43:25;20.10;99.10
27162;DHT22;54464;50.558;9.704;2023-07-20T09:45:57;19.60;98.90
27162;DHT22;54464;50.558;9.704;2023-07-20T09:48:24;19.10;98.80
27162;DHT22;54464;50.558;9.704;2023-07-20T09:51:37;19.10;99.00
27162;DHT22;54464;50.558;9.704;2023-07-20T09:53:49;19.10;98.50
27162;DHT22;54464;50.558;9.704;2023-07-20T09:56:27;18.90;99.90
27162;DHT22;54464;50.558;9.704;2023-07-20T09:59:00;19.10;99.90
27162;DHT22;54464;50.558;9.704;2023-07-20T10:01:29;19.40;99.90
27162;DHT22;54464;50.558;9.704;2023-07-20T10:03:58;19.30;99.90
27162;DHT22;54464;50.558;9.704;2023-07-20T10:06:55;19.10;99.90
27162;DHT22;54464;50.558;9.704;2023-07-20T10:09:24;18.90;99.90
27162;DHT22;54464;50.558;9.704;2023-07-20T10:11:56;18.60;99.90
27162;DHT22;54464;50.558;9.704;2023-07-20T10:14:40;18.70;99.90
27162;DHT22;54464;50.558;9.704;2023-07-20T10:17:19;18.90;99.90
27162;DHT22;54464;50.558;9.704;2023-07-20T10:19:54;18.50;99.90
27162;DHT22;54464;50.558;9.704;2023-07-20T10:22:30;18.50;99.90
27162;DHT22;54464;50.558;9.704;2023-07-20T10:24:56;18.80;99.90
27162;DHT22;54464;50.558;9.704;2023-07-20T10:27:27;19.10;99.90
27162;DHT22;54464;50.558;9.704;2023-07-20T10:30:04;19.90;99.90
27162;DHT22;54464;50.558;9.704;2023-07-20T10:32:33;20.20;99.90
27162;DHT22;54464;50.558;9.704;2023-07-20T10:35:15;20.60;99.90
27162;DHT22;54464;50.558;9.704;2023-07-20T10:38:03;21.00;99.90
27162;DHT22;54464;50.558;9.704;2023-07-20T10:40:57;20.30;99.10
27162;DHT22;54464;50.558;9.704;2023-07-20T10:43:22;21.50;98.30
27162;DHT22;54464;50.558;9.704;2023-07-20T10:45:53;20.60;98.00
27162;DHT22;54464;50.558;9.704;2023-07-20T10:48:23;20.50;98.10
27162;DHT22;54464;50.558;9.704;2023-07-20T10:51:29;20.30;97.90
27162;DHT22;54464;50.558;9.704;2023-07-20T10:53:57;20.40;98.10
27162;DHT22;54464;50.558;9.704;2023-07-20T10:56:27;20.90;96.90
27162;DHT22;54464;50.558;9.704;2023-07-20T10:59:00;21.30;96.40
27162;DHT22;54464;50.558;9.704;2023-07-20T11:01:36;21.20;95.40
27162;DHT22;54464;50.558;9.704;2023-07-20T11:04:16;20.20;95.60
27162;DHT22;54464;50.558;9.704;2023-07-20T11:07:05;19.70;97.40
27162;DHT22;54464;50.558;9.704;2023-07-20T11:09:44;19.80;96.30
27162;DHT22;54464;50.558;9.704;2023-07-20T11:12:17;19.70;95.90
27162;DHT22;54464;50.558;9.704;2023-07-20T11:14:58;20.30;95.70
27162;DHT22;54464;50.558;9.704;2023-07-20T11:17:33;20.30;94.20
27162;DHT22;54464;50.558;9.704;2023-07-20T11:20:02;20.20;94.80
27162;DHT22;54464;50.558;9.704;2023-07-20T11:22:33;20.30;94.50
27162;DHT22;54464;50.558;9.704;2023-07-20T11:25:05;20.70;93.20
27162;DHT22;54464;50.558;9.704;2023-07-20T11:27:30;20.40;93.80
27162;DHT22;54464;50.558;9.704;2023-07-20T11:29:56;20.50;93.60
27162;DHT22;54464;50.558;9.704;2023-07-20T11:32:24;21.10;93.30
27162;DHT22;54464;50.558;9.704;2023-07-20T11:34:53;21.20;91.20
27162;DHT22;54464;50.558;9.704;2023-07-20T11:37:18;21.10;92.20
27162;DHT22;54464;50.558;9.704;2023-07-20T11:39:44;21.40;91.90
27162;DHT22;54464;50.558;9.704;2023-07-20T11:42:10;22.00;91.50
27162;DHT22;54464;50.558;9.704;2023-07-20T11:44:36;21.40;90.90
27162;DHT22;54464;50.558;9.704;2023-07-20T11:47:03;21.00;95.10
27162;DHT22;54464;50.558;9.704;2023-07-20T11:49:30;21.30;96.10
27162;DHT22;54464;50.558;9.704;2023-07-20T11:51:59;22.30;95.70
27162;DHT22;54464;50.558;9.704;2023-07-20T11:54:28;22.30;95.00
27162;DHT22;54464;50.558;9.704;2023-07-20T11:56:55;22.00;95.00
27162;DHT22;54464;50.558;9.704;2023-07-20T11:59:23;21.70;94.90
27162;DHT22;54464;50.558;9.704;2023-07-20T12:01:49;21.40;95.10
27162;DHT22;54464;50.558;9.704;2023-07-20T12:04:15;21.30;95.90
27162;DHT22;54464;50.558;9.704;2023-07-20T12:06:40;21.10;96.60
27162;DHT22;54464;50.558;9.704;2023-07-20T12:09:14;21.00;96.00
27162;DHT22;54464;50.558;9.704;2023-07-20T12:11:43;20.80;96.40
27162;DHT22;54464;50.558;9.704;2023-07-20T12:14:10;20.50;96.70
27162;DHT22;54464;50.558;9.704;2023-07-20T12:16:42;20.40;97.00
27162;DHT22;54464;50.558;9.704;2023-07-20T12:19:09;20.50;97.90
27162;DHT22;54464;50.558;9.704;2023-07-20T12:21:36;20.40;98.80
27162;DHT22;54464;50.558;9.704;2023-07-20T12:24:03;20.60;98.50
27162;DHT22;54464;50.558;9.704;2023-07-20T12:26:33;20.70;98.10
27162;DHT22;54464;50.558;9.704;2023-07-20T12:29:00;20.50;98.60
27162;DHT22;54464;50.558;9.704;2023-07-20T12:31:26;20.70;98.30
27162;DHT22;54464;50.558;9.704;2023-07-20T12:33:53;20.70;98.50
27162;DHT22;54464;50.558;9.704;2023-07-20T12:36:21;21.10;98.30
27162;DHT22;54464;50.558;9.704;2023-07-20T12:38:50;21.50;97.80
27162;DHT22;54464;50.558;9.704;2023-07-20T12:41:16;22.00;97.00
27162;DHT22;54464;50.558;9.704;2023-07-20T12:43:43;22.90;96.10
27162;DHT22;54464;50.558;9.704;2023-07-20T12:46:10;23.90;94.90
27162;DHT22;54464;50.558;9.704;2023-07-20T12:48:37;25.50;92.50
27162;DHT22;54464;50.558;9.704;2023-07-20T12:51:04;26.50;91.00
27162;DHT22;54464;50.558;9.704;2023-07-20T12:53:32;27.60;87.90
27162;DHT22;54464;50.558;9.704;2023-07-20T12:56:01;27.60;84.00
27162;DHT22;54464;50.558;9.704;2023-07-20T12:58:30;27.00;85.90
27162;DHT22;54464;50.558;9.704;2023-07-20T13:00:58;28.10;82.20
27162;DHT22;54464;50.558;9.704;2023-07-20T13:03:24;29.00;78.60
27162;DHT22;54464;50.558;9.704;2023-07-20T13:05:49;29.00;78.20
27162;DHT22;54464;50.558;9.704;2023-07-20T13:08:16;28.00;78.80
27162;DHT22;54464;50.558;9.704;2023-07-20T13:10:42;26.10;83.00
27162;DHT22;54464;50.558;9.704;2023-07-20T13:13:08;25.30;85.40
27162;DHT22;54464;50.558;9.704;2023-07-20T13:15:44;24.60;87.90
27162;DHT22;54464;50.558;9.704;2023-07-20T13:18:12;23.90;90.10
27162;DHT22;54464;50.558;9.704;2023-07-20T13:20:38;23.60;90.60
27162;DHT22;54464;50.558;9.704;2023-07-20T13:23:15;22.60;91.80
27162;DHT22;54464;50.558;9.704;2023-07-20T13:25:41;22.60;92.20
27162;DHT22;54464;50.558;9.704;2023-07-20T13:28:07;22.60;92.30
27162;DHT22;54464;50.558;9.704;2023-07-20T13:30:39;22.50;91.90
27162;DHT22;54464;50.558;9.704;2023-07-20T13:33:07;22.30;92.00
27162;DHT22;54464;50.558;9.704;2023-07-20T13:35:32;22.30;92.60
27162;DHT22;54464;50.558;9.704;2023-07-20T13:37:58;22.60;92.60
27162;DHT22;54464;50.558;9.704;2023-07-20T13:40:24;22.80;92.30
27162;DHT22;54464;50.558;9.704;2023-07-20T13:42:49;23.10;92.00
27162;DHT22;54464;50.558;9.704;2023-07-20T13:45:41;24.10;91.20
27162;DHT22;54464;50.558;9.704;2023-07-20T13:48:06;24.00;91.30
27162;DHT22;54464;50.558;9.704;2023-07-20T13:50:52;24.50;90.80
27162;DHT22;54464;50.558;9.704;2023-07-20T13:53:18;26.00;89.80
27162;DHT22;54464;50.558;9.704;2023-07-20T13:55:44;26.70;86.80
27162;DHT22;54464;50.558;9.704;2023-07-20T13:58:12;26.20;85.90
27162;DHT22;54464;50.558;9.704;2023-07-20T14:00:38;26.00;87.30
27162;DHT22;54464;50.558;9.704;2023-07-20T14:03:33;26.90;87.10
27162;DHT22;54464;50.558;9.704;2023-07-20T14:05:58;29.70;78.90
27162;DHT22;54464;50.558;9.704;2023-07-20T14:08:24;30.40;75.30
27162;DHT22;54464;50.558;9.704;2023-07-20T14:10:49;29.40;77.90
27162;DHT22;54464;50.558;9.704;2023-07-20T14:13:18;29.80;76.10
27162;DHT22;54464;50.558;9.704;2023-07-20T14:15:43;28.60;77.00
27162;DHT22;54464;50.558;9.704;2023-07-20T14:18:32;27.10;80.10
27162;DHT22;54464;50.558;9.704;2023-07-20T14:20:57;26.10;81.30
27162;DHT22;54464;50.558;9.704;2023-07-20T14:23:23;26.00;81.70
27162;DHT22;54464;50.558;9.704;2023-07-20T14:25:51;25.30;82.50
27162;DHT22;54464;50.558;9.704;2023-07-20T14:28:17;25.90;83.60
27162;DHT22;54464;50.558;9.704;2023-07-20T14:30:42;26.40;77.80
27162;DHT22;54464;50.558;9.704;2023-07-20T14:36:15;25.60;78.70
27162;DHT22;54464;50.558;9.704;2023-07-20T14:38:43;25.20;80.90
27162;DHT22;54464;50.558;9.704;2023-07-20T14:41:11;24.00;85.10
27162;DHT22;54464;50.558;9.704;2023-07-20T14:43:37;23.60;86.30
27162;DHT22;54464;50.558;9.704;2023-07-20T14:46:04;23.30;86.90
27162;DHT22;54464;50.558;9.704;2023-07-20T14:48:29;22.90;89.00
27162;DHT22;54464;50.558;9.704;2023-07-20T14:51:10;23.20;86.20
27162;DHT22;54464;50.558;9.704;2023-07-20T14:53:35;22.00;88.90
27162;DHT22;54464;50.558;9.704;2023-07-20T14:56:01;22.00;90.50
27162;DHT22;54464;50.558;9.704;2023-07-20T14:58:32;23.10;87.50
27162;DHT22;54464;50.558;9.704;2023-07-20T15:01:00;23.40;85.50
27162;DHT22;54464;50.558;9.704;2023-07-20T15:03:29;23.10;85.30
27162;DHT22;54464;50.558;9.704;2023-07-20T15:05:56;22.70;87.70
27162;DHT22;54464;50.558;9.704;2023-07-20T15:08:21;23.40;87.60
27162;DHT22;54464;50.558;9.704;2023-07-20T15:10:48;24.00;86.30
27162;DHT22;54464;50.558;9.704;2023-07-20T15:13:14;24.10;83.90
27162;DHT22;54464;50.558;9.704;2023-07-20T15:15:40;23.80;82.10
27162;DHT22;54464;50.558;9.704;2023-07-20T15:18:05;24.20;80.90
27162;DHT22;54464;50.558;9.704;2023-07-20T15:20:31;25.60;77.70
27162;DHT22;54464;50.558;9.704;2023-07-20T15:22:57;25.20;77.60
27162;DHT22;54464;50.558;9.704;2023-07-20T15:25:23;24.10;77.80
27162;DHT22;54464;50.558;9.704;2023-07-20T15:28:02;23.70;81.50
27162;DHT22;54464;50.558;9.704;2023-07-20T15:30:28;24.00;80.00
27162;DHT22;54464;50.558;9.704;2023-07-20T15:32:55;23.30;81.40
27162;DHT22;54464;50.558;9.704;2023-07-20T15:35:31;23.50;83.40
27162;DHT22;54464;50.558;9.704;2023-07-20T15:38:08;25.20;80.00
27162;DHT22;54464;50.558;9.704;2023-07-20T15:40:33;24.50;81.30
27162;DHT22;54464;50.558;9.704;2023-07-20T15:42:59;25.40;78.80
27162;DHT22;54464;50.558;9.704;2023-07-20T15:45:24;25.60;77.70
27162;DHT22;54464;50.558;9.704;2023-07-20T15:47:53;25.90;79.20
27162;DHT22;54464;50.558;9.704;2023-07-20T15:50:18;28.60;74.30
27162;DHT22;54464;50.558;9.704;2023-07-20T15:52:49;31.80;70.20
27162;DHT22;54464;50.558;9.704;2023-07-20T15:55:15;33.90;64.20
27162;DHT22;54464;50.558;9.704;2023-07-20T15:57:40;34.80;62.00
27162;DHT22;54464;50.558;9.704;2023-07-20T16:00:06;34.20;59.40
27162;DHT22;54464;50.558;9.704;2023-07-20T16:02:35;30.40;64.50
27162;DHT22;54464;50.558;9.704;2023-07-20T16:05:03;29.30;68.20
27162;DHT22;54464;50.558;9.704;2023-07-20T16:07:32;26.90;73.20
27162;DHT22;54464;50.558;9.704;2023-07-20T16:09:59;25.90;74.40
27162;DHT22;54464;50.558;9.704;2023-07-20T16:12:29;26.10;74.60
27162;DHT22;54464;50.558;9.704;2023-07-20T16:14:57;27.20;74.30
27162;DHT22;54464;50.558;9.704;2023-07-20T16:17:23;26.70;75.40
27162;DHT22;54464;50.558;9.704;2023-07-20T16:19:48;25.70;76.80
27162;DHT22;54464;50.558;9.704;2023-07-20T16:22:14;26.60;77.00
27162;DHT22;54464;50.558;9.704;2023-07-20T16:24:45;28.00;74.30
27162;DHT22;54464;50.558;9.704;2023-07-20T16:27:11;29.60;71.60
27162;DHT22;54464;50.558;9.704;2023-07-20T16:29:56;31.40;67.10
27162;DHT22;54464;50.558;9.704;2023-07-20T16:32:29;32.40;64.10
27162;DHT22;54464;50.558;9.704;2023-07-20T16:35:02;31.00;65.00
27162;DHT22;54464;50.558;9.704;2023-07-20T16:37:28;27.30;71.70
27162;DHT22;54464;50.558;9.704;2023-07-20T16:39:56;25.10;76.50
27162;DHT22;54464;50.558;9.704;2023-07-20T16:42:33;24.50;79.20
27162;DHT22;54464;50.558;9.704;2023-07-20T16:44:59;23.80;82.10